PWSweather.com
Personal Weather Stations
Station Observations
KMNGREYC2
Grey Cloud Island, Grey Cloud Island, MN 55071

Grey Cloud IslandGrey Cloud Island, MN 55071

Lat: 44.799333, Lon: -92.987851

Elevation: 700

Station Type: Davis VP2

www.jagielski.com/weather/conditions.htm

High Low Average
Temperature 36.6°F2.6°C 32.8°F0.4°C 35.2°F1.8°C
Dew Point 35.8°F2.1°C 31.5°F-0.3°C 34.4°F1.3°C
Winds 6.0 mph 9.7 kmh Calm Calm 1.0 mph SE1.6 kmh SE
Wind Gusts 12.0 mph19.3 kmh -- 5.0 mph8.0 kmh
Humidity 98% 95% 97%
Pressure 29.97 in1014.9 mb 29.34 in993.6 mb -
Precipitation 0.00 in0.0 mm - -
Hour Temp Dew Point Humidity Winds Wind Gusts Pressure Precip Precip Rate Daily Precip Total
12:00 AM 32.8°F0.4°C 31.5°F-0.3°C 95% Calm Calm -- 29.97 in1014.9 mb 0.00 in0.0 mm 0.00 in0.0 mm 0.00 in0.0 mm
12:15 AM 32.9°F0.5°C 31.6°F-0.2°C 95% Calm Calm -- 29.95 in1014.2 mb 0.00 in0.0 mm 0.00 in0.0 mm 0.00 in0.0 mm
12:30 AM 32.9°F0.5°C 31.6°F-0.2°C 95% Calm Calm -- 29.95 in1014.2 mb 0.00 in0.0 mm 0.00 in0.0 mm 0.00 in0.0 mm
12:45 AM 33.0°F0.6°C 32.0°F0.0°C 96% 1.0 mph SSE1.6 kmh SSE 7.0 mph11.3 kmh 29.94 in1013.9 mb 0.00 in0.0 mm 0.00 in0.0 mm 0.00 in0.0 mm
01:00 AM 33.2°F0.7°C 32.2°F0.1°C 96% Calm Calm 7.0 mph11.3 kmh 29.93 in1013.5 mb 0.00 in0.0 mm 0.00 in0.0 mm 0.00 in0.0 mm
01:15 AM 33.4°F0.8°C 32.4°F0.2°C 96% 2.0 mph SE3.2 kmh SE 8.0 mph12.9 kmh 29.92 in1013.2 mb 0.00 in0.0 mm 0.00 in0.0 mm 0.00 in0.0 mm
01:30 AM 33.5°F0.8°C 32.5°F0.3°C 96% Calm Calm 8.0 mph12.9 kmh 29.91 in1012.9 mb 0.00 in0.0 mm 0.00 in0.0 mm 0.00 in0.0 mm
01:45 AM 33.5°F0.8°C 32.5°F0.3°C 96% 3.0 mph ESE4.8 kmh ESE 9.0 mph14.5 kmh 29.90 in1012.5 mb 0.00 in0.0 mm 0.00 in0.0 mm 0.00 in0.0 mm
02:00 AM 33.7°F0.9°C 32.7°F0.4°C 96% 2.0 mph E3.2 kmh E 9.0 mph14.5 kmh 29.88 in1011.9 mb 0.00 in0.0 mm 0.00 in0.0 mm 0.00 in0.0 mm
02:15 AM 33.7°F0.9°C 32.7°F0.4°C 96% Calm Calm 8.0 mph12.9 kmh 29.88 in1011.9 mb 0.00 in0.0 mm 0.00 in0.0 mm 0.00 in0.0 mm
02:30 AM 33.8°F1.0°C 32.8°F0.4°C 96% 3.0 mph ESE4.8 kmh ESE 8.0 mph12.9 kmh 29.88 in1011.9 mb 0.00 in0.0 mm 0.00 in0.0 mm 0.00 in0.0 mm
02:45 AM 33.9°F1.1°C 32.9°F0.5°C 96% 1.0 mph E1.6 kmh E 6.0 mph9.7 kmh 29.87 in1011.5 mb 0.00 in0.0 mm 0.00 in0.0 mm 0.00 in0.0 mm
03:00 AM 33.9°F1.1°C 32.9°F0.5°C 96% Calm Calm 12.0 mph19.3 kmh 29.87 in1011.5 mb 0.00 in0.0 mm 0.00 in0.0 mm 0.00 in0.0 mm
03:15 AM 34.0°F1.1°C 33.0°F0.6°C 96% 6.0 mph E9.7 kmh E 7.0 mph11.3 kmh 29.85 in1010.8 mb 0.02 in0.5 mm 0.08 in2.0 mm 0.02 in0.5 mm
03:30 AM 34.1°F1.2°C 33.1°F0.6°C 96% Calm Calm 7.0 mph11.3 kmh 29.83 in1010.2 mb 0.04 in1.0 mm 0.08 in2.0 mm 0.04 in1.0 mm
03:45 AM 34.2°F1.2°C 33.2°F0.7°C 96% Calm Calm 7.0 mph11.3 kmh 29.82 in1009.8 mb 0.06 in1.5 mm 0.08 in2.0 mm 0.06 in1.5 mm
04:00 AM 34.3°F1.3°C 33.3°F0.7°C 96% 1.0 mph E1.6 kmh E 7.0 mph11.3 kmh 29.80 in1009.1 mb 0.08 in2.0 mm 0.03 in0.8 mm 0.08 in2.0 mm
04:15 AM 34.4°F1.3°C 33.4°F0.8°C 96% Calm Calm 6.0 mph9.7 kmh 29.79 in1008.8 mb 0.09 in2.3 mm 0.04 in1.0 mm 0.09 in2.3 mm
04:30 AM 34.4°F1.3°C 33.4°F0.8°C 96% Calm Calm 6.0 mph9.7 kmh 29.77 in1008.1 mb 0.11 in2.8 mm 0.08 in2.0 mm 0.11 in2.8 mm
04:45 AM 34.5°F1.4°C 33.5°F0.8°C 96% 1.0 mph E1.6 kmh E 4.0 mph6.4 kmh 29.76 in1007.8 mb 0.08 in2.0 mm 0.00 in0.0 mm 0.11 in2.8 mm
05:00 AM 34.6°F1.4°C 33.6°F0.9°C 96% Calm Calm 8.0 mph12.9 kmh 29.74 in1007.1 mb 0.09 in2.3 mm 0.01 in0.3 mm 0.12 in3.0 mm
05:15 AM 34.8°F1.6°C 33.8°F1.0°C 96% Calm Calm 9.0 mph14.5 kmh 29.74 in1007.1 mb 0.06 in1.5 mm 0.00 in0.0 mm 0.12 in3.0 mm
05:30 AM 34.8°F1.6°C 33.8°F1.0°C 96% Calm Calm 9.0 mph14.5 kmh 29.74 in1007.1 mb 0.08 in2.0 mm 0.08 in2.0 mm 0.14 in3.6 mm
05:45 AM 34.9°F1.6°C 33.9°F1.1°C 96% 2.0 mph E3.2 kmh E 6.0 mph9.7 kmh 29.72 in1006.4 mb 0.06 in1.5 mm 0.00 in0.0 mm 0.14 in3.6 mm
06:00 AM 35.1°F1.7°C 34.1°F1.2°C 96% 3.0 mph SE4.8 kmh SE 6.0 mph9.7 kmh 29.72 in1006.4 mb 0.06 in1.5 mm 0.00 in0.0 mm 0.14 in3.6 mm
06:15 AM 35.2°F1.8°C 34.2°F1.2°C 96% Calm Calm 4.0 mph6.4 kmh 29.72 in1006.4 mb 0.05 in1.3 mm 0.00 in0.0 mm 0.14 in3.6 mm
06:30 AM 35.3°F1.8°C 34.3°F1.3°C 96% 1.0 mph ESE1.6 kmh ESE 8.0 mph12.9 kmh 29.72 in1006.4 mb 0.07 in1.8 mm 0.08 in2.0 mm 0.16 in4.1 mm
06:45 AM 35.4°F1.9°C 34.4°F1.3°C 96% Calm Calm 5.0 mph8.0 kmh 29.71 in1006.1 mb 0.06 in1.5 mm 0.00 in0.0 mm 0.16 in4.1 mm
07:00 AM 35.4°F1.9°C 34.4°F1.3°C 96% Calm Calm 5.0 mph8.0 kmh 29.70 in1005.8 mb 0.08 in2.0 mm 0.03 in0.8 mm 0.18 in4.6 mm
07:15 AM 35.4°F1.9°C 34.4°F1.3°C 96% Calm Calm 7.0 mph11.3 kmh 29.69 in1005.4 mb 0.09 in2.3 mm 0.04 in1.0 mm 0.19 in4.8 mm
07:30 AM 35.5°F1.9°C 34.7°F1.5°C 97% Calm Calm 7.0 mph11.3 kmh 29.69 in1005.4 mb 0.11 in2.8 mm 0.08 in2.0 mm 0.21 in5.3 mm
07:45 AM 35.6°F2.0°C 34.8°F1.6°C 97% 3.0 mph E4.8 kmh E 8.0 mph12.9 kmh 29.69 in1005.4 mb 0.10 in2.5 mm 0.00 in0.0 mm 0.21 in5.3 mm
08:00 AM 35.7°F2.1°C 34.7°F1.5°C 96% Calm Calm 8.0 mph12.9 kmh 29.68 in1005.1 mb 0.10 in2.5 mm 0.00 in0.0 mm 0.21 in5.3 mm
08:15 AM 35.8°F2.1°C 35.0°F1.7°C 97% Calm Calm 5.0 mph8.0 kmh 29.68 in1005.1 mb 0.07 in1.8 mm 0.00 in0.0 mm 0.21 in5.3 mm
08:30 AM 35.9°F2.2°C 35.1°F1.7°C 97% 1.0 mph ESE1.6 kmh ESE 10.0 mph16.1 kmh 29.67 in1004.7 mb 0.09 in2.3 mm 0.08 in2.0 mm 0.23 in5.8 mm
08:45 AM 36.0°F2.2°C 35.2°F1.8°C 97% Calm Calm 7.0 mph11.3 kmh 29.66 in1004.4 mb 0.06 in1.5 mm 0.00 in0.0 mm 0.23 in5.8 mm
09:00 AM 36.1°F2.3°C 35.3°F1.8°C 97% 2.0 mph E3.2 kmh E 8.0 mph12.9 kmh 29.65 in1004.1 mb 0.07 in1.8 mm 0.01 in0.3 mm 0.24 in6.1 mm
09:15 AM 36.1°F2.3°C 35.3°F1.8°C 97% Calm Calm 7.0 mph11.3 kmh 29.63 in1003.4 mb 0.06 in1.5 mm 0.00 in0.0 mm 0.24 in6.1 mm
09:30 AM 36.2°F2.3°C 35.4°F1.9°C 97% 3.0 mph SE4.8 kmh SE 7.0 mph11.3 kmh 29.61 in1002.7 mb 0.07 in1.8 mm 0.04 in1.0 mm 0.25 in6.4 mm
09:45 AM 36.2°F2.3°C 35.4°F1.9°C 97% Calm Calm 4.0 mph6.4 kmh 29.60 in1002.4 mb 0.05 in1.3 mm 0.00 in0.0 mm 0.25 in6.4 mm
10:00 AM 36.3°F2.4°C 35.5°F1.9°C 97% Calm Calm 5.0 mph8.0 kmh 29.59 in1002.0 mb 0.06 in1.5 mm 0.01 in0.3 mm 0.26 in6.6 mm
10:15 AM 36.5°F2.5°C 35.7°F2.1°C 97% Calm Calm 4.0 mph6.4 kmh 29.59 in1002.0 mb 0.04 in1.0 mm 0.00 in0.0 mm 0.26 in6.6 mm
10:30 AM 36.5°F2.5°C 35.7°F2.1°C 97% Calm Calm 4.0 mph6.4 kmh 29.58 in1001.7 mb 0.05 in1.3 mm 0.04 in1.0 mm 0.27 in6.9 mm
10:45 AM 36.6°F2.6°C 35.8°F2.1°C 97% Calm Calm 4.0 mph6.4 kmh 29.58 in1001.7 mb 0.04 in1.0 mm 0.00 in0.0 mm 0.27 in6.9 mm
11:00 AM 36.6°F2.6°C 35.8°F2.1°C 97% 1.0 mph ESE1.6 kmh ESE 4.0 mph6.4 kmh 29.58 in1001.7 mb 0.06 in1.5 mm 0.03 in0.8 mm 0.29 in7.4 mm
11:15 AM 36.6°F2.6°C 35.8°F2.1°C 97% Calm Calm 2.0 mph3.2 kmh 29.56 in1001.0 mb 0.08 in2.0 mm 0.08 in2.0 mm 0.31 in7.9 mm
11:30 AM 36.6°F2.6°C 35.8°F2.1°C 97% Calm Calm 2.0 mph3.2 kmh 29.55 in1000.7 mb 0.10 in2.5 mm 0.08 in2.0 mm 0.33 in8.4 mm
11:45 AM 36.5°F2.5°C 35.7°F2.1°C 97% Calm Calm 3.0 mph4.8 kmh 29.53 in1000.0 mb 0.11 in2.8 mm 0.04 in1.0 mm 0.34 in8.6 mm
12:00 PM 36.4°F2.4°C 35.6°F2.0°C 97% Calm Calm 3.0 mph4.8 kmh 29.51 in999.3 mb 0.13 in3.3 mm 0.03 in0.8 mm 0.36 in9.1 mm
12:15 PM 36.2°F2.3°C 35.4°F1.9°C 97% Calm Calm 3.0 mph4.8 kmh 29.50 in999.0 mb 0.11 in2.8 mm 0.00 in0.0 mm 0.36 in9.1 mm
12:30 PM 36.2°F2.3°C 35.4°F1.9°C 97% Calm Calm 3.0 mph4.8 kmh 29.49 in998.6 mb 0.12 in3.0 mm 0.04 in1.0 mm 0.37 in9.4 mm
12:45 PM 36.2°F2.3°C 35.4°F1.9°C 97% Calm Calm 3.0 mph4.8 kmh 29.49 in998.6 mb 0.08 in2.0 mm 0.00 in0.0 mm 0.37 in9.4 mm
01:00 PM 36.2°F2.3°C 35.4°F1.9°C 97% Calm Calm 3.0 mph4.8 kmh 29.48 in998.3 mb 0.10 in2.5 mm 0.03 in0.8 mm 0.39 in9.9 mm
01:15 PM 36.2°F2.3°C 35.4°F1.9°C 97% Calm Calm 3.0 mph4.8 kmh 29.47 in998.0 mb 0.09 in2.3 mm 0.00 in0.0 mm 0.39 in9.9 mm
01:30 PM 36.3°F2.4°C 35.5°F1.9°C 97% Calm Calm 3.0 mph4.8 kmh 29.45 in997.3 mb 0.10 in2.5 mm 0.04 in1.0 mm 0.40 in10.2 mm
01:45 PM 36.3°F2.4°C 35.5°F1.9°C 97% Calm Calm 3.0 mph4.8 kmh 29.45 in997.3 mb 0.08 in2.0 mm 0.00 in0.0 mm 0.40 in10.2 mm
02:00 PM 36.3°F2.4°C 35.5°F1.9°C 97% Calm Calm 3.0 mph4.8 kmh 29.43 in996.6 mb 0.10 in2.5 mm 0.03 in0.8 mm 0.42 in10.7 mm
02:15 PM 36.2°F2.3°C 35.4°F1.9°C 97% Calm Calm 4.0 mph6.4 kmh 29.43 in996.6 mb 0.06 in1.5 mm 0.00 in0.0 mm 0.42 in10.7 mm
02:30 PM 36.2°F2.3°C 35.4°F1.9°C 97% Calm Calm 4.0 mph6.4 kmh 29.42 in996.3 mb 0.07 in1.8 mm 0.04 in1.0 mm 0.43 in10.9 mm
02:45 PM 36.1°F2.3°C 35.3°F1.8°C 97% Calm Calm 3.0 mph4.8 kmh 29.42 in996.3 mb 0.04 in1.0 mm 0.00 in0.0 mm 0.43 in10.9 mm
03:00 PM 36.1°F2.3°C 35.3°F1.8°C 97% 1.0 mph E1.6 kmh E 3.0 mph4.8 kmh 29.42 in996.3 mb 0.05 in1.3 mm 0.01 in0.3 mm 0.44 in11.2 mm
03:15 PM 36.2°F2.3°C 35.4°F1.9°C 97% Calm Calm 5.0 mph8.0 kmh 29.41 in995.9 mb 0.04 in1.0 mm 0.00 in0.0 mm 0.44 in11.2 mm
03:30 PM 36.2°F2.3°C 35.4°F1.9°C 97% Calm Calm 5.0 mph8.0 kmh 29.41 in995.9 mb 0.06 in1.5 mm 0.08 in2.0 mm 0.46 in11.7 mm
03:45 PM 36.1°F2.3°C 35.3°F1.8°C 97% Calm Calm 1.0 mph1.6 kmh 29.41 in995.9 mb 0.06 in1.5 mm 0.00 in0.0 mm 0.46 in11.7 mm
04:00 PM 36.0°F2.2°C 35.2°F1.8°C 97% Calm Calm 1.0 mph1.6 kmh 29.42 in996.3 mb 0.08 in2.0 mm 0.03 in0.8 mm 0.48 in12.2 mm
04:15 PM 35.8°F2.1°C 35.0°F1.7°C 97% Calm Calm 1.0 mph1.6 kmh 29.42 in996.3 mb 0.08 in2.0 mm 0.00 in0.0 mm 0.48 in12.2 mm
04:30 PM 35.6°F2.0°C 34.8°F1.6°C 97% Calm Calm 1.0 mph1.6 kmh 29.41 in995.9 mb 0.12 in3.0 mm 0.16 in4.1 mm 0.52 in13.2 mm
04:45 PM 35.6°F2.0°C 34.8°F1.6°C 97% Calm Calm 2.0 mph3.2 kmh 29.40 in995.6 mb 0.11 in2.8 mm 0.00 in0.0 mm 0.52 in13.2 mm
05:00 PM 35.4°F1.9°C 34.6°F1.4°C 97% Calm Calm 2.0 mph3.2 kmh 29.41 in995.9 mb 0.15 in3.8 mm 0.05 in1.3 mm 0.56 in14.2 mm
05:15 PM 35.4°F1.9°C 34.6°F1.4°C 97% 3.0 mph E4.8 kmh E 6.0 mph9.7 kmh 29.38 in994.9 mb 0.16 in4.1 mm 0.04 in1.0 mm 0.57 in14.5 mm
05:30 PM 35.6°F2.0°C 34.8°F1.6°C 97% 2.0 mph NE3.2 kmh NE 7.0 mph11.3 kmh 29.34 in993.6 mb 0.17 in4.3 mm 0.04 in1.0 mm 0.58 in14.7 mm
05:45 PM 35.9°F2.2°C 35.1°F1.7°C 97% 1.0 mph S1.6 kmh S 9.0 mph14.5 kmh 29.35 in993.9 mb 0.11 in2.8 mm 0.00 in0.0 mm 0.58 in14.7 mm
06:00 PM 36.0°F2.2°C 35.2°F1.8°C 97% Calm Calm 9.0 mph14.5 kmh 29.37 in994.6 mb 0.11 in2.8 mm 0.00 in0.0 mm 0.58 in14.7 mm
06:15 PM 35.9°F2.2°C 35.1°F1.7°C 97% Calm Calm -- 29.37 in994.6 mb 0.06 in1.5 mm 0.00 in0.0 mm 0.58 in14.7 mm
06:30 PM 35.6°F2.0°C 34.8°F1.6°C 97% Calm Calm -- 29.37 in994.6 mb 0.07 in1.8 mm 0.04 in1.0 mm 0.59 in15.0 mm
06:45 PM 35.3°F1.8°C 34.5°F1.4°C 97% Calm Calm 1.0 mph1.6 kmh 29.37 in994.6 mb 0.03 in0.8 mm 0.00 in0.0 mm 0.59 in15.0 mm
07:00 PM 35.0°F1.7°C 34.2°F1.2°C 97% Calm Calm 1.0 mph1.6 kmh 29.37 in994.6 mb 0.04 in1.0 mm 0.01 in0.3 mm 0.60 in15.2 mm
07:15 PM 34.8°F1.6°C 34.0°F1.1°C 97% Calm Calm 1.0 mph1.6 kmh 29.37 in994.6 mb 0.05 in1.3 mm 0.04 in1.0 mm 0.61 in15.5 mm
07:30 PM 34.7°F1.5°C 33.9°F1.1°C 97% Calm Calm 1.0 mph1.6 kmh 29.37 in994.6 mb 0.07 in1.8 mm 0.08 in2.0 mm 0.63 in16.0 mm
07:45 PM 34.6°F1.4°C 33.8°F1.0°C 97% Calm Calm 1.0 mph1.6 kmh 29.37 in994.6 mb 0.07 in1.8 mm 0.00 in0.0 mm 0.63 in16.0 mm
08:00 PM 34.6°F1.4°C 33.8°F1.0°C 97% Calm Calm 2.0 mph3.2 kmh 29.37 in994.6 mb 0.08 in2.0 mm 0.01 in0.3 mm 0.64 in16.3 mm
08:15 PM 34.7°F1.5°C 33.9°F1.1°C 97% Calm Calm 3.0 mph4.8 kmh 29.37 in994.6 mb 0.07 in1.8 mm 0.00 in0.0 mm 0.64 in16.3 mm
08:30 PM 35.2°F1.8°C 34.4°F1.3°C 97% Calm Calm 3.0 mph4.8 kmh 29.37 in994.6 mb 0.07 in1.8 mm 0.00 in0.0 mm 0.64 in16.3 mm
08:45 PM 35.4°F1.9°C 34.9°F1.6°C 98% Calm Calm 3.0 mph4.8 kmh 29.37 in994.6 mb 0.04 in1.0 mm 0.00 in0.0 mm 0.64 in16.3 mm
09:00 PM 35.4°F1.9°C 34.9°F1.6°C 98% Calm Calm 3.0 mph4.8 kmh 29.37 in994.6 mb 0.04 in1.0 mm 0.00 in0.0 mm 0.64 in16.3 mm
09:15 PM 35.6°F2.0°C 34.8°F1.6°C 97% Calm Calm 4.0 mph6.4 kmh 29.37 in994.6 mb 0.01 in0.3 mm 0.00 in0.0 mm 0.64 in16.3 mm
09:30 PM 35.7°F2.1°C 34.9°F1.6°C 97% 1.0 mph NW1.6 kmh NW 5.0 mph8.0 kmh 29.37 in994.6 mb 0.01 in0.3 mm 0.00 in0.0 mm 0.64 in16.3 mm
09:45 PM 35.7°F2.1°C 34.9°F1.6°C 97% 2.0 mph NNW3.2 kmh NNW 4.0 mph6.4 kmh 29.38 in994.9 mb 0.00 in0.0 mm 0.00 in0.0 mm 0.64 in16.3 mm
10:00 PM 35.6°F2.0°C 34.8°F1.6°C 97% 1.0 mph N1.6 kmh N 5.0 mph8.0 kmh 29.39 in995.3 mb 0.00 in0.0 mm 0.00 in0.0 mm 0.64 in16.3 mm
10:15 PM 35.5°F1.9°C 35.0°F1.7°C 98% 1.0 mph NNW1.6 kmh NNW 5.0 mph8.0 kmh 29.40 in995.6 mb 0.01 in0.3 mm 0.04 in1.0 mm 0.65 in16.5 mm
10:30 PM 35.2°F1.8°C 34.7°F1.5°C 98% 3.0 mph NW4.8 kmh NW 5.0 mph8.0 kmh 29.40 in995.6 mb 0.01 in0.3 mm 0.00 in0.0 mm 0.65 in16.5 mm
10:45 PM 35.0°F1.7°C 34.2°F1.2°C 97% 3.0 mph NNW4.8 kmh NNW 4.0 mph6.4 kmh 29.40 in995.6 mb 0.02 in0.5 mm 0.04 in1.0 mm 0.66 in16.8 mm
11:00 PM 34.7°F1.5°C 33.9°F1.1°C 97% Calm Calm 6.0 mph9.7 kmh 29.41 in995.9 mb 0.02 in0.5 mm 0.00 in0.0 mm 0.66 in16.8 mm
11:15 PM 34.4°F1.3°C 33.6°F0.9°C 97% 2.0 mph NW3.2 kmh NW 6.0 mph9.7 kmh 29.42 in996.3 mb 0.02 in0.5 mm 0.00 in0.0 mm 0.66 in16.8 mm
11:30 PM 34.2°F1.2°C 33.4°F0.8°C 97% Calm Calm 7.0 mph11.3 kmh 29.41 in995.9 mb 0.02 in0.5 mm 0.00 in0.0 mm 0.66 in16.8 mm
11:45 PM 34.0°F1.1°C 33.2°F0.7°C 97% Calm Calm 7.0 mph11.3 kmh 29.43 in996.6 mb 0.01 in0.3 mm 0.00 in0.0 mm 0.66 in16.8 mm